CDT,Max TemperatureF,Mean TemperatureF,Min TemperatureF,Max Dew PointF,MeanDew PointF,Min DewpointF,Max Humidity, Mean Humidity, Min Humidity, Max Sea Level PressureIn, Mean Sea Level PressureIn, Min Sea Level PressureIn, Max VisibilityMiles, Mean VisibilityMiles, Min VisibilityMiles, Max Wind SpeedMPH, Mean Wind SpeedMPH, Max Gust SpeedMPH,PrecipitationIn, CloudCover, Events, WindDirDegrees
2013-7-1,82,73,64,55,53,48,68,51,37,30.01,29.97,29.93,10,10,9,14,7,22,0.00,3,,348
2013-7-2,82,70,57,54,49,46,72,45,30,30.09,30.03,29.99,10,10,10,13,5,18,0.00,1,,350
2013-7-3,84,68,53,54,50,46,77,51,30,30.13,30.07,30.02,10,10,5,7,1,,0.00,0,,128
2013-7-4,87,72,57,55,51,48,72,51,29,30.09,30.04,29.98,10,10,10,18,2,22,0.00,1,Thunderstorm,83
2013-7-5,89,73,57,57,54,48,77,53,29,30.08,30.03,29.97,10,10,3,7,1,,0.00,0,,129
2013-7-6,89,76,62,63,58,54,73,54,29,30.06,30.01,29.97,10,10,5,8,2,,0.00,0,,122
2013-7-7,91,78,64,64,59,55,77,52,31,30.08,30.04,30.01,10,10,4,9,2,,0.00,0,,144
2013-7-8,91,80,69,66,63,61,73,54,36,30.12,30.08,30.04,10,10,9,10,2,,0.00,0,,159
2013-7-9,96,84,73,66,63,63,69,47,32,30.11,30.05,29.98,10,10,10,14,5,21,0.00,0,,217
2013-7-10,100,88,75,66,63,59,65,49,28,30.04,29.98,29.90,10,10,10,9,4,,0.00,0,,199
2013-7-11,96,82,69,66,60,52,73,49,25,30.03,29.99,29.94,10,10,10,9,2,,0.00,1,,45
2013-7-12,91,78,64,55,50,45,64,40,22,30.11,30.04,30.00,10,10,5,9,4,,0.00,0,,84
2013-7-13,87,72,57,55,51,46,67,49,29,30.09,30.04,29.98,10,10,2,8,1,,0.00,0,,111
2013-7-14,89,74,60,59,55,50,72,51,29,30.10,30.05,30.01,10,10,10,10,2,,0.00,0,,105
2013-7-15,89,78,68,64,62,57,73,56,40,30.20,30.14,30.09,10,10,9,13,4,21,0.00,3,,94
2013-7-16,95,82,69,66,64,63,78,56,36,30.28,30.24,30.20,10,10,3,13,2,18,0.00,2,,101
2013-7-17,96,82,69,66,62,59,73,51,30,30.33,30.27,30.19,10,10,9,10,1,,0.00,0,,113
2013-7-18,98,84,69,64,61,57,69,51,28,30.23,30.14,30.05,10,10,5,12,2,21,0.00,0,,134
2013-7-19,96,82,69,64,62,61,78,61,32,30.08,30.01,29.93,10,10,5,18,3,28,0.00,1,Thunderstorm,145
2013-7-20,93,80,66,66,63,61,83,64,38,29.97,29.94,29.86,10,8,0,21,2,24,0.00,2,Thunderstorm,242
2013-7-21,87,78,69,66,64,63,78,70,49,29.96,29.92,29.87,10,9,3,8,2,20,0.00,2,Thunderstorm,118
2013-7-22,84,76,69,66,64,61,78,68,51,29.94,29.89,29.85,10,8,0,15,2,22,0.00,3,Thunderstorm,200
2013-7-23,100,84,69,72,64,61,78,65,35,29.93,29.88,29.80,10,10,2,15,4,24,0.00,2,Thunderstorm,162
2013-7-24,84,76,69,64,63,61,78,64,48,30.02,29.95,29.85,10,10,9,13,4,18,0.00,3,,352
2013-7-25,82,73,64,63,57,54,73,55,39,30.12,30.08,30.03,10,10,10,8,2,,0.00,1,,88
2013-7-26,71,68,66,63,59,57,83,73,60,30.10,30.05,30.00,10,8,1,5,1,,0.00,4,,132
2013-7-27,82,74,64,61,58,54,83,63,37,30.04,30.00,29.96,10,7,0,8,2,,0.00,4,,326
2013-7-28,78,70,62,61,57,54,78,68,47,30.08,30.04,30.01,10,10,10,7,1,,0.00,1,,64
2013-7-29,84,75,66,66,62,57,78,64,51,30.13,30.08,30.05,10,10,10,9,3,,0.00,3,,123
2013-7-30,82,76,71,70,66,63,83,72,58,30.08,30.04,29.99,10,7,2,7,3,,0.07,4,,102
2013-7-31,91,82,73,70,67,64,78,65,46,30.06,30.02,29.98,10,8,2,10,2,18,0.00,2,Thunderstorm,351